Time;durP1;ratioP1;P1;durP2;ratioP2;P2;SDS_P1;SDS_P2;PMS_P1;PMS_P2;Temp;Humidity;BMP_temperature;BMP_pressure;BME280_temperature;BME280_humidity;BME280_pressure;Samples;Min_cycle;Max_cycle;Signal;HPM_P1;HPM_P2
2023/05/13 00:00:04;;;;;;;5.87;3.93;;;12.90;86.30;;;;;;5068484;28;20173;-72
2023/05/13 00:02:30;;;;;;;6.00;4.13;;;12.90;85.90;;;;;;5068274;28;20200;-73
2023/05/13 00:04:56;;;;;;;6.23;4.33;;;12.90;85.70;;;;;;5044045;28;20796;-72
2023/05/13 00:07:21;;;;;;;5.53;4.20;;;12.90;85.70;;;;;;5059561;28;20173;-75
2023/05/13 00:09:47;;;;;;;7.63;4.63;;;12.90;85.50;;;;;;5070081;28;20606;-72
2023/05/13 00:12:13;;;;;;;5.90;4.40;;;13.00;85.50;;;;;;5052059;28;20283;-72
2023/05/13 00:14:38;;;;;;;4.50;4.17;;;13.00;85.20;;;;;;5059223;28;20184;-73
2023/05/13 00:17:04;;;;;;;8.67;5.20;;;13.00;84.90;;;;;;5050749;28;20677;-72
2023/05/13 00:19:30;;;;;;;5.80;4.10;;;13.10;84.90;;;;;;5060888;28;20255;-74
2023/05/13 00:21:56;;;;;;;5.57;4.30;;;13.10;84.70;;;;;;5056892;28;20259;-73
2023/05/13 00:24:22;;;;;;;8.30;4.50;;;13.10;84.60;;;;;;5057733;28;20964;-74
2023/05/13 00:26:47;;;;;;;6.73;4.10;;;13.10;84.30;;;;;;5063636;28;20553;-72
2023/05/13 00:29:13;;;;;;;5.97;4.67;;;13.10;84.30;;;;;;5065748;28;20245;-74
2023/05/13 00:31:38;;;;;;;7.33;4.57;;;13.10;84.00;;;;;;5050494;28;20199;-75
2023/05/13 00:34:04;;;;;;;7.30;4.97;;;13.10;83.80;;;;;;5061620;28;20179;-72
2023/05/13 00:36:30;;;;;;;7.40;5.00;;;13.00;83.80;;;;;;5050285;28;20734;-72
2023/05/13 00:38:56;;;;;;;11.73;5.80;;;12.90;84.40;;;;;;5065474;28;20183;-74
2023/05/13 00:41:21;;;;;;;8.97;5.80;;;12.70;84.90;;;;;;5049767;28;20200;-77
2023/05/13 00:43:47;;;;;;;7.87;4.90;;;12.70;85.20;;;;;;5049617;28;20796;-73
2023/05/13 00:46:14;;;;;;;7.47;4.63;;;12.60;85.20;;;;;;5040759;28;20187;-73
2023/05/13 00:48:40;;;;;;;6.80;4.77;;;12.60;85.30;;;;;;5067537;28;20306;-76
2023/05/13 00:51:06;;;;;;;8.30;5.10;;;12.50;85.00;;;;;;5045881;28;20614;-74
2023/05/13 00:53:32;;;;;;;9.07;4.93;;;12.60;85.30;;;;;;5068363;28;20422;-74
2023/05/13 00:55:58;;;;;;;9.50;5.30;;;12.60;85.50;;;;;;5071482;28;20479;-74
2023/05/13 00:58:24;;;;;;;5.33;4.43;;;12.60;85.30;;;;;;5042090;28;20423;-73
2023/05/13 01:01:25;;;;;;;7.90;5.13;;;12.50;85.20;;;;;;5046378;28;20216;-74
2023/05/13 01:04:09;;;;;;;7.57;5.33;;;12.40;85.30;;;;;;5023391;28;20208;-74
2023/05/13 01:06:50;;;;;;;6.40;4.50;;;12.40;85.90;;;;;;5023317;28;20431;-75
2023/05/13 01:09:56;;;;;;;6.83;4.60;;;12.30;86.00;;;;;;5023521;28;20470;-75
2023/05/13 01:12:34;;;;;;;9.40;5.20;;;12.40;86.00;;;;;;5005092;28;20451;-75
2023/05/13 01:15:21;;;;;;;6.30;4.20;;;12.40;85.90;;;;;;5024882;28;20443;-73
2023/05/13 01:18:09;;;;;;;5.87;4.80;;;12.50;85.90;;;;;;5029313;28;20412;-74
2023/05/13 01:20:39;;;;;;;6.97;5.10;;;12.50;85.70;;;;;;5017718;28;20424;-75
2023/05/13 01:23:05;;;;;;;6.80;4.60;;;12.30;85.60;;;;;;5024453;28;20862;-75
2023/05/13 01:25:31;;;;;;;6.37;4.80;;;12.30;86.00;;;;;;5028469;28;20461;-74
2023/05/13 01:27:57;;;;;;;7.63;5.33;;;12.30;86.20;;;;;;5028947;28;20596;-75
2023/05/13 01:30:23;;;;;;;9.10;5.30;;;12.10;86.80;;;;;;5028242;28;20207;-75
2023/05/13 01:32:50;;;;;;;16.87;5.40;;;12.10;86.60;;;;;;5025074;28;20197;-75
2023/05/13 01:35:17;;;;;;;7.13;5.07;;;11.80;87.40;;;;;;5027095;28;20506;-75
2023/05/13 01:37:43;;;;;;;6.97;4.97;;;11.80;87.60;;;;;;5010202;28;20435;-75
2023/05/13 01:40:09;;;;;;;11.20;5.00;;;11.80;87.70;;;;;;5028691;28;20449;-75
2023/05/13 01:42:35;;;;;;;8.43;5.70;;;11.80;87.80;;;;;;5064757;28;20458;-74
2023/05/13 01:45:02;;;;;;;6.50;5.07;;;11.70;87.80;;;;;;5067871;28;20417;-75
2023/05/13 01:47:28;;;;;;;10.20;5.83;;;11.60;87.80;;;;;;5069156;28;20188;-75
2023/05/13 01:49:53;;;;;;;7.87;5.00;;;11.60;88.00;;;;;;5071421;28;20468;-74
2023/05/13 01:52:19;;;;;;;7.10;4.63;;;11.40;88.30;;;;;;5067334;28;20253;-74
2023/05/13 01:54:45;;;;;;;9.13;5.30;;;11.40;88.70;;;;;;5071082;28;20172;-74
2023/05/13 01:57:10;;;;;;;7.83;5.60;;;11.40;88.90;;;;;;5066028;28;20761;-74
2023/05/13 01:59:36;;;;;;;5.73;4.50;;;11.40;88.30;;;;;;5070051;28;20192;-75
2023/05/13 02:02:02;;;;;;;7.37;5.10;;;11.20;88.60;;;;;;5065199;28;20207;-74
2023/05/13 02:04:28;;;;;;;8.50;5.60;;;11.20;88.90;;;;;;5068111;28;20186;-75
2023/05/13 02:06:54;;;;;;;10.83;5.60;;;11.20;88.70;;;;;;5066366;28;20505;-74
2023/05/13 02:09:20;;;;;;;7.43;5.30;;;11.20;88.70;;;;;;5066721;28;20265;-75
2023/05/13 02:11:45;;;;;;;8.13;4.97;;;11.20;88.90;;;;;;5057112;28;20204;-75
2023/05/13 02:14:11;;;;;;;9.70;5.70;;;11.10;88.60;;;;;;5047176;28;20208;-76
2023/05/13 02:16:37;;;;;;;6.83;4.47;;;11.10;88.70;;;;;;5044633;28;20188;-75
2023/05/13 02:19:03;;;;;;;6.73;4.93;;;11.10;88.70;;;;;;5070663;28;20279;-74
2023/05/13 02:21:28;;;;;;;6.77;4.40;;;11.20;88.70;;;;;;5063078;28;20695;-74
2023/05/13 02:23:54;;;;;;;6.10;4.27;;;11.30;88.70;;;;;;5070989;28;20210;-75
2023/05/13 02:26:20;;;;;;;7.50;4.90;;;11.40;88.40;;;;;;5055655;28;20666;-75
2023/05/13 02:28:45;;;;;;;6.27;4.77;;;11.60;87.80;;;;;;5074434;28;20215;-74
2023/05/13 02:31:11;;;;;;;7.33;4.70;;;11.60;87.40;;;;;;5050361;28;20200;-74
2023/05/13 02:33:36;;;;;;;9.13;4.93;;;11.70;87.00;;;;;;5077483;28;20180;-75
2023/05/13 02:36:02;;;;;;;7.10;5.30;;;11.70;86.80;;;;;;5075501;28;20519;-75
2023/05/13 02:38:27;;;;;;;6.00;4.70;;;11.50;86.30;;;;;;5074071;28;20189;-75
2023/05/13 02:40:53;;;;;;;8.70;5.20;;;11.30;86.90;;;;;;5051808;28;20224;-75
2023/05/13 02:43:19;;;;;;;8.70;5.60;;;11.10;87.30;;;;;;5071153;28;20746;-75
2023/05/13 02:45:45;;;;;;;7.03;4.93;;;10.80;88.00;;;;;;5069308;28;20180;-74
2023/05/13 02:48:11;;;;;;;7.37;5.27;;;10.80;88.40;;;;;;5056339;28;20226;-75
2023/05/13 02:50:37;;;;;;;9.73;5.47;;;10.80;88.60;;;;;;5067742;28;20925;-74
2023/05/13 02:53:02;;;;;;;10.70;5.00;;;10.80;88.60;;;;;;5069197;28;20180;-75
2023/05/13 02:55:28;;;;;;;7.77;4.80;;;10.80;88.30;;;;;;5064493;28;21060;-74
2023/05/13 02:57:55;;;;;;;6.70;4.37;;;10.80;88.10;;;;;;5067318;28;20180;-75
2023/05/13 03:00:21;;;;;;;6.60;4.23;;;10.90;88.40;;;;;;5046608;28;20187;-74
2023/05/13 03:02:46;;;;;;;6.17;4.33;;;10.90;87.70;;;;;;5062033;28;20454;-74
2023/05/13 03:05:12;;;;;;;5.90;4.23;;;11.00;87.40;;;;;;5071896;28;20267;-74
2023/05/13 03:07:38;;;;;;;8.40;4.13;;;11.10;87.00;;;;;;5090562;28;20172;-74
2023/05/13 03:10:04;;;;;;;8.40;4.90;;;11.20;86.60;;;;;;5068117;28;20191;-74
2023/05/13 03:12:30;;;;;;;9.50;4.50;;;11.10;85.90;;;;;;5071359;28;20208;-75
2023/05/13 03:14:56;;;;;;;6.90;4.80;;;11.00;86.20;;;;;;5087715;28;20457;-75
2023/05/13 03:17:21;;;;;;;8.93;4.67;;;11.10;86.20;;;;;;5090137;28;20199;-74
2023/05/13 03:19:47;;;;;;;8.53;4.70;;;11.10;85.90;;;;;;5069290;28;20206;-74
2023/05/13 03:22:12;;;;;;;7.73;4.47;;;11.10;85.90;;;;;;5073147;28;20219;-75
2023/05/13 03:24:38;;;;;;;6.40;4.53;;;11.10;85.70;;;;;;5064871;28;20670;-74
2023/05/13 03:27:04;;;;;;;5.27;4.40;;;11.20;85.60;;;;;;5066698;28;20554;-74
2023/05/13 03:29:29;;;;;;;6.10;4.37;;;11.10;85.00;;;;;;5070325;28;20211;-74
2023/05/13 03:31:55;;;;;;;6.83;4.70;;;11.20;85.20;;;;;;5065644;28;20215;-75
2023/05/13 03:34:21;;;;;;;7.03;5.10;;;11.30;84.90;;;;;;5072460;28;20179;-75
2023/05/13 03:36:46;;;;;;;6.43;4.73;;;11.00;84.90;;;;;;5067537;28;20188;-75
2023/05/13 03:39:12;;;;;;;8.07;4.23;;;11.00;85.30;;;;;;5071265;28;20179;-74
2023/05/13 03:41:38;;;;;;;7.23;4.67;;;11.00;85.30;;;;;;5068090;28;20277;-75
2023/05/13 03:44:03;;;;;;;7.43;5.00;;;10.90;85.30;;;;;;5056472;28;20188;-75
2023/05/13 03:46:29;;;;;;;5.80;4.40;;;10.70;85.60;;;;;;5049892;28;20187;-75
2023/05/13 03:48:55;;;;;;;7.80;4.20;;;10.80;86.30;;;;;;5073236;28;20287;-75
2023/05/13 03:51:21;;;;;;;6.67;4.47;;;10.80;86.30;;;;;;5068881;28;20219;-74
2023/05/13 03:53:47;;;;;;;8.13;4.40;;;10.90;86.20;;;;;;5067044;28;20179;-75
2023/05/13 03:56:13;;;;;;;6.53;4.50;;;11.00;85.90;;;;;;5068837;28;20418;-75
2023/05/13 03:58:39;;;;;;;7.87;4.83;;;11.00;85.50;;;;;;5073261;28;20274;-74
2023/05/13 04:01:06;;;;;;;9.40;5.10;;;10.90;85.30;;;;;;5068121;28;20521;-75
2023/05/13 04:03:33;;;;;;;6.80;4.23;;;10.90;85.60;;;;;;5071110;28;20433;-74
2023/05/13 04:05:59;;;;;;;5.60;4.40;;;11.00;85.60;;;;;;5071743;28;20429;-75
2023/05/13 04:08:25;;;;;;;8.40;4.70;;;11.10;85.50;;;;;;5072706;28;20845;-75
2023/05/13 04:10:51;;;;;;;6.33;4.60;;;11.10;85.20;;;;;;5069825;28;20449;-75
2023/05/13 04:13:16;;;;;;;8.37;4.87;;;11.10;85.20;;;;;;5069432;28;20418;-75
2023/05/13 04:15:42;;;;;;;7.10;4.83;;;11.20;84.90;;;;;;5054621;28;20190;-74
2023/05/13 04:18:08;;;;;;;6.50;4.80;;;11.20;84.70;;;;;;5054964;28;20298;-74
2023/05/13 04:20:37;;;;;;;7.77;5.00;;;11.20;84.60;;;;;;5070924;28;20172;-75
2023/05/13 04:23:03;;;;;;;6.90;5.07;;;10.90;84.70;;;;;;5069950;28;20434;-75
2023/05/13 04:25:29;;;;;;;6.80;4.60;;;11.00;85.30;;;;;;5070093;28;20937;-75
2023/05/13 04:27:54;;;;;;;7.13;4.50;;;11.10;85.20;;;;;;5053408;28;20200;-75
2023/05/13 04:30:20;;;;;;;8.60;5.80;;;11.00;84.70;;;;;;5071205;28;20176;-75
2023/05/13 04:32:45;;;;;;;8.10;5.90;;;10.80;84.70;;;;;;5069474;28;20573;-75
2023/05/13 04:35:11;;;;;;;7.13;4.73;;;10.70;85.50;;;;;;5068717;28;20183;-74
2023/05/13 04:37:37;;;;;;;11.40;5.70;;;10.60;85.90;;;;;;5050454;28;20262;-73
2023/05/13 04:40:03;;;;;;;5.97;4.40;;;10.60;86.20;;;;;;5066186;28;20184;-74
2023/05/13 04:42:28;;;;;;;10.13;5.33;;;10.60;86.20;;;;;;5069328;28;20204;-75
2023/05/13 04:44:54;;;;;;;9.83;5.63;;;10.70;85.70;;;;;;5066108;28;20846;-75
2023/05/13 04:47:21;;;;;;;7.30;4.80;;;10.80;85.70;;;;;;5054095;28;20225;-75
2023/05/13 04:49:47;;;;;;;7.00;4.90;;;10.90;85.60;;;;;;5066592;28;20203;-75
2023/05/13 04:52:12;;;;;;;6.90;4.20;;;11.00;85.00;;;;;;5065212;28;21003;-74
2023/05/13 04:54:38;;;;;;;7.60;5.00;;;10.90;84.90;;;;;;5068687;28;20184;-75
2023/05/13 04:57:05;;;;;;;7.10;4.53;;;10.90;85.00;;;;;;5072046;28;20180;-75
2023/05/13 04:59:31;;;;;;;6.20;4.07;;;11.00;84.70;;;;;;5071122;28;20426;-75
2023/05/13 05:01:56;;;;;;;6.07;4.60;;;11.10;84.10;;;;;;5063820;28;20999;-74
2023/05/13 05:04:23;;;;;;;7.23;4.60;;;11.00;84.00;;;;;;5071986;28;20183;-75
2023/05/13 05:06:48;;;;;;;7.70;5.00;;;11.00;84.10;;;;;;5069760;28;20184;-75
2023/05/13 05:09:14;;;;;;;7.07;3.90;;;11.10;84.10;;;;;;5071942;28;20462;-75
2023/05/13 05:11:40;;;;;;;12.57;5.67;;;11.00;83.80;;;;;;5065041;28;20218;-75
2023/05/13 05:14:05;;;;;;;8.20;5.10;;;10.90;83.80;;;;;;5072130;28;20234;-74
2023/05/13 05:16:31;;;;;;;6.47;5.27;;;10.80;84.60;;;;;;5070088;28;20190;-74
2023/05/13 05:18:56;;;;;;;9.10;5.40;;;10.70;84.90;;;;;;5071767;28;20195;-74
2023/05/13 05:21:22;;;;;;;7.23;4.60;;;10.70;85.00;;;;;;5064784;28;21124;-74
2023/05/13 05:23:48;;;;;;;7.63;5.00;;;10.60;85.20;;;;;;5069774;28;20219;-73
2023/05/13 05:26:13;;;;;;;5.63;4.67;;;10.60;85.20;;;;;;5068866;28;20184;-74
2023/05/13 05:28:41;;;;;;;8.00;4.97;;;10.70;85.30;;;;;;5070875;28;20211;-73
2023/05/13 05:31:08;;;;;;;6.90;4.80;;;10.80;85.30;;;;;;5068666;28;20585;-75
2023/05/13 05:33:34;;;;;;;5.93;4.30;;;11.00;85.50;;;;;;5068389;28;20476;-75
2023/05/13 05:36:00;;;;;;;5.00;4.40;;;11.10;84.90;;;;;;5072905;28;20508;-74
2023/05/13 05:38:26;;;;;;;5.60;4.90;;;11.20;84.60;;;;;;5065479;28;20462;-74
2023/05/13 05:40:52;;;;;;;7.70;5.03;;;11.40;83.80;;;;;;5071551;28;20199;-75
2023/05/13 05:43:17;;;;;;;6.57;4.03;;;11.50;83.30;;;;;;5071266;28;20192;-75
2023/05/13 05:45:43;;;;;;;9.70;5.27;;;11.50;82.70;;;;;;5070649;28;20531;-74
2023/05/13 05:48:08;;;;;;;8.50;5.70;;;11.40;82.20;;;;;;5070592;28;20582;-74
2023/05/13 05:50:35;;;;;;;12.03;5.40;;;11.30;82.50;;;;;;5069282;28;20692;-75
2023/05/13 05:53:02;;;;;;;13.00;5.20;;;11.10;83.30;;;;;;5068593;28;20204;-75
2023/05/13 05:55:28;;;;;;;9.10;4.70;;;11.10;83.40;;;;;;5063231;28;20418;-75
2023/05/13 05:57:55;;;;;;;6.57;4.80;;;11.30;83.30;;;;;;5067980;28;20417;-75
2023/05/13 06:00:20;;;;;;;10.93;4.73;;;11.40;83.10;;;;;;5069423;28;20195;-75
2023/05/13 06:02:47;;;;;;;6.90;5.10;;;11.40;82.80;;;;;;5059703;28;20864;-74
2023/05/13 06:05:13;;;;;;;6.10;4.50;;;11.40;82.50;;;;;;5066297;28;20184;-75
2023/05/13 06:07:38;;;;;;;9.70;5.07;;;11.40;83.00;;;;;;5071440;28;20444;-74
2023/05/13 06:10:05;;;;;;;8.40;5.57;;;11.20;82.70;;;;;;5074933;28;20204;-74
2023/05/13 06:12:31;;;;;;;8.03;4.83;;;10.80;83.70;;;;;;5061660;28;20210;-74
2023/05/13 06:14:57;;;;;;;9.13;5.40;;;10.70;84.90;;;;;;5063628;28;20464;-74
2023/05/13 06:17:23;;;;;;;6.80;5.50;;;10.80;85.30;;;;;;5081532;28;20887;-75
2023/05/13 06:19:49;;;;;;;8.97;5.67;;;10.90;85.30;;;;;;5079438;28;20207;-75
2023/05/13 06:22:15;;;;;;;7.87;5.50;;;10.90;84.70;;;;;;5065061;28;20516;-74
2023/05/13 06:24:43;;;;;;;10.67;5.70;;;10.80;84.70;;;;;;5073055;28;20438;-74
2023/05/13 06:27:10;;;;;;;8.67;5.40;;;10.80;85.00;;;;;;5077851;28;20191;-75
2023/05/13 06:29:36;;;;;;;8.10;6.03;;;10.90;85.00;;;;;;5062279;28;20503;-75
2023/05/13 06:32:02;;;;;;;7.07;5.40;;;11.10;84.70;;;;;;5052571;28;20458;-74
2023/05/13 06:34:28;;;;;;;15.17;6.00;;;11.00;84.10;;;;;;5059099;28;20505;-75
2023/05/13 06:36:54;;;;;;;8.10;5.40;;;10.90;84.40;;;;;;5062928;28;20462;-75
2023/05/13 06:39:20;;;;;;;9.10;6.27;;;10.80;85.00;;;;;;5077943;28;20425;-75
2023/05/13 06:41:45;;;;;;;9.30;6.03;;;10.90;84.70;;;;;;5081209;28;20630;-75
2023/05/13 06:44:11;;;;;;;8.60;6.10;;;10.80;85.30;;;;;;5074628;28;20186;-75
2023/05/13 06:46:36;;;;;;;9.03;5.17;;;10.80;85.00;;;;;;5079519;28;20187;-75
2023/05/13 06:49:02;;;;;;;8.50;6.10;;;10.80;85.50;;;;;;5079980;28;20211;-75
2023/05/13 06:51:29;;;;;;;10.37;6.30;;;10.80;85.50;;;;;;5057438;28;20293;-75
2023/05/13 06:53:55;;;;;;;8.30;5.73;;;10.90;85.30;;;;;;5055308;28;20260;-74
2023/05/13 06:56:24;;;;;;;11.33;5.97;;;11.10;85.30;;;;;;5077196;28;20418;-74
2023/05/13 06:58:51;;;;;;;10.37;6.40;;;11.20;84.90;;;;;;5080499;28;20194;-75
2023/05/13 07:01:17;;;;;;;10.53;7.40;;;11.30;83.60;;;;;;5078552;28;20461;-74
2023/05/13 07:03:43;;;;;;;9.10;6.40;;;11.40;83.70;;;;;;5073199;28;20423;-75
2023/05/13 07:06:09;;;;;;;12.17;6.90;;;11.40;83.10;;;;;;5078158;28;20418;-74
2023/05/13 07:08:35;;;;;;;16.20;6.83;;;11.20;83.30;;;;;;5064427;28;20473;-76
2023/05/13 07:11:00;;;;;;;10.00;6.27;;;11.20;83.70;;;;;;5062019;28;20461;-74
2023/05/13 07:13:26;;;;;;;16.10;6.30;;;11.10;83.40;;;;;;5063741;28;20635;-75
2023/05/13 07:15:52;;;;;;;9.23;6.63;;;11.20;83.70;;;;;;5076876;28;20210;-75
2023/05/13 07:18:17;;;;;;;12.73;6.23;;;11.50;83.70;;;;;;5080305;28;20278;-76
2023/05/13 07:20:43;;;;;;;8.47;5.80;;;11.60;83.10;;;;;;5081689;28;20188;-76
2023/05/13 07:23:09;;;;;;;7.63;5.20;;;11.80;82.40;;;;;;5075507;28;20216;-75
2023/05/13 07:25:34;;;;;;;12.90;6.90;;;12.10;81.50;;;;;;5063134;28;20204;-74
2023/05/13 07:28:00;;;;;;;10.70;7.00;;;11.80;80.80;;;;;;5062851;28;20254;-74
2023/05/13 07:30:26;;;;;;;10.97;5.70;;;11.90;81.50;;;;;;5080567;28;20176;-75
2023/05/13 07:32:51;;;;;;;7.60;5.23;;;12.20;81.20;;;;;;5071587;28;20207;-76
2023/05/13 07:35:17;;;;;;;9.30;6.10;;;12.10;80.30;;;;;;5080367;28;20192;-75
2023/05/13 07:37:46;;;;;;;8.57;5.33;;;12.30;80.00;;;;;;5083275;28;20187;-74
2023/05/13 07:40:12;;;;;;;9.00;5.80;;;12.30;80.00;;;;;;5083944;28;20230;-75
2023/05/13 07:42:38;;;;;;;7.60;5.97;;;12.40;79.20;;;;;;5064118;28;20879;-75
2023/05/13 07:45:05;;;;;;;10.20;6.73;;;12.00;79.90;;;;;;5070374;28;20489;-74
2023/05/13 07:47:32;;;;;;;12.03;5.97;;;12.10;80.00;;;;;;5075013;28;20434;-75
2023/05/13 07:49:58;;;;;;;9.27;7.00;;;12.40;80.20;;;;;;5074922;28;20994;-74
2023/05/13 07:52:23;;;;;;;13.37;6.67;;;12.50;79.50;;;;;;5065731;28;20453;-74
2023/05/13 07:54:49;;;;;;;7.80;5.60;;;12.10;79.70;;;;;;5052782;28;20888;-75
2023/05/13 07:57:15;;;;;;;10.80;5.97;;;11.90;80.90;;;;;;5075414;28;20184;-75
2023/05/13 07:59:40;;;;;;;12.03;6.47;;;12.00;80.90;;;;;;5075396;28;20257;-75
2023/05/13 08:02:07;;;;;;;11.30;6.70;;;12.10;80.20;;;;;;5068585;28;20299;-75
2023/05/13 08:04:33;;;;;;;10.63;6.53;;;12.00;80.80;;;;;;5054497;28;20215;-75
2023/05/13 08:07:00;;;;;;;15.00;6.40;;;11.80;81.20;;;;;;5075436;28;20792;-75
2023/05/13 08:09:25;;;;;;;7.97;6.23;;;12.00;81.20;;;;;;5077684;28;20715;-75
2023/05/13 08:11:51;;;;;;;8.57;5.60;;;12.20;80.50;;;;;;5074934;28;20566;-75
2023/05/13 08:14:17;;;;;;;6.93;5.60;;;12.30;79.60;;;;;;5068537;28;20180;-75
2023/05/13 08:16:42;;;;;;;10.27;6.50;;;12.10;80.00;;;;;;5075662;28;20198;-75
2023/05/13 08:19:08;;;;;;;10.40;5.60;;;12.20;80.50;;;;;;5076627;28;20191;-75
2023/05/13 08:21:34;;;;;;;8.10;5.97;;;12.40;80.00;;;;;;5075147;28;20223;-75
2023/05/13 08:24:00;;;;;;;8.93;6.30;;;12.60;79.20;;;;;;5050628;28;20446;-75
2023/05/13 08:26:26;;;;;;;8.53;5.47;;;12.30;79.50;;;;;;5071217;28;20188;-75
2023/05/13 08:28:51;;;;;;;10.47;6.60;;;12.40;80.50;;;;;;5074126;28;20508;-74
2023/05/13 08:31:17;;;;;;;10.60;6.00;;;12.50;79.30;;;;;;5068037;28;20204;-74
2023/05/13 08:33:44;;;;;;;12.23;6.93;;;12.50;79.00;;;;;;5064419;28;20185;-76
2023/05/13 08:36:10;;;;;;;10.67;6.57;;;12.50;78.90;;;;;;5072860;28;20258;-75
2023/05/13 08:38:36;;;;;;;7.80;6.20;;;12.40;79.30;;;;;;5078527;28;20418;-75
2023/05/13 08:41:05;;;;;;;9.33;6.40;;;12.30;79.70;;;;;;5091770;28;20212;-75
2023/05/13 08:43:32;;;;;;;8.40;6.17;;;12.10;80.50;;;;;;5092449;28;20418;-74
2023/05/13 08:46:02;;;;;;;10.07;6.27;;;12.30;80.50;;;;;;5093290;28;20444;-74
2023/05/13 08:48:29;;;;;;;9.77;6.20;;;12.50;79.70;;;;;;5096652;28;20464;-74
2023/05/13 08:50:56;;;;;;;12.33;6.70;;;12.50;79.30;;;;;;5091910;28;20430;-75
2023/05/13 08:53:25;;;;;;;10.60;6.83;;;12.20;80.00;;;;;;5082520;28;20418;-74
2023/05/13 08:55:51;;;;;;;10.20;6.50;;;12.10;80.80;;;;;;5076144;28;20944;-76
2023/05/13 08:58:17;;;;;;;10.97;6.80;;;12.10;80.80;;;;;;5076451;28;20429;-74
2023/05/13 09:00:42;;;;;;;11.07;6.40;;;11.90;81.70;;;;;;5072409;28;20426;-76
2023/05/13 09:03:08;;;;;;;9.47;7.00;;;12.10;81.20;;;;;;5061017;28;20624;-75
2023/05/13 09:05:35;;;;;;;10.93;6.80;;;12.10;81.20;;;;;;5068641;28;20271;-75
2023/05/13 09:08:08;;;;;;;10.23;6.50;;;11.90;81.90;;;;;;5069085;28;20562;-75
2023/05/13 09:10:34;;;;;;;8.27;6.07;;;12.00;81.80;;;;;;5068855;28;20410;-75
2023/05/13 09:13:00;;;;;;;13.30;6.87;;;12.00;81.20;;;;;;5066317;28;20791;-75
2023/05/13 09:15:27;;;;;;;11.33;6.50;;;12.00;81.70;;;;;;5067309;28;20488;-75
2023/05/13 09:18:01;;;;;;;8.83;5.80;;;12.10;81.50;;;;;;5062625;28;20467;-74
2023/05/13 09:20:27;;;;;;;6.97;5.70;;;12.40;81.10;;;;;;5072557;28;20790;-72
2023/05/13 09:23:05;;;;;;;9.63;6.53;;;12.60;79.30;;;;;;5057390;28;20442;-74
2023/05/13 09:25:31;;;;;;;9.60;5.60;;;12.80;79.00;;;;;;5045315;28;20516;-74
2023/05/13 09:28:01;;;;;;;7.30;5.47;;;12.80;78.70;;;;;;5042321;28;20418;-75
2023/05/13 09:30:29;;;;;;;7.03;5.27;;;12.80;78.40;;;;;;5071601;28;20881;-74
2023/05/13 09:33:14;;;;;;;8.47;5.07;;;12.90;78.00;;;;;;5069352;28;20502;-76
2023/05/13 09:35:48;;;;;;;10.53;6.00;;;13.10;77.70;;;;;;5072683;28;20433;-76
2023/05/13 09:38:15;;;;;;;8.77;5.47;;;13.20;77.30;;;;;;5050449;28;20473;-75
2023/05/13 09:40:52;;;;;;;8.40;4.57;;;13.30;76.70;;;;;;5069456;28;20441;-75
2023/05/13 09:43:20;;;;;;;8.13;5.23;;;13.10;77.10;;;;;;5058419;28;20776;-75
2023/05/13 09:45:45;;;;;;;10.17;5.17;;;13.10;77.30;;;;;;5064697;28;20505;-75
2023/05/13 09:48:13;;;;;;;10.00;5.73;;;13.30;77.40;;;;;;5053468;28;20498;-75
2023/05/13 09:50:49;;;;;;;9.80;5.83;;;13.30;76.70;;;;;;5054061;28;20186;-74
2023/05/13 09:53:15;;;;;;;7.53;4.80;;;13.40;76.40;;;;;;5068618;28;20422;-75
2023/05/13 09:55:49;;;;;;;6.50;4.77;;;13.60;76.20;;;;;;5064226;28;20422;-75
2023/05/13 09:58:15;;;;;;;7.73;5.90;;;13.70;75.70;;;;;;5067736;28;20426;-74
2023/05/13 10:00:42;;;;;;;7.10;4.93;;;13.50;75.50;;;;;;5051146;28;20804;-74
2023/05/13 10:03:09;;;;;;;7.70;5.30;;;13.50;76.80;;;;;;5087915;28;20432;-74
2023/05/13 10:05:35;;;;;;;7.67;5.50;;;13.80;75.90;;;;;;5085155;28;20418;-76
2023/05/13 10:08:01;;;;;;;7.70;5.70;;;13.80;75.40;;;;;;5076860;28;20469;-75
2023/05/13 10:10:29;;;;;;;7.70;5.20;;;14.20;74.90;;;;;;5078691;28;20485;-73
2023/05/13 10:13:10;;;;;;;7.63;5.03;;;14.30;74.50;;;;;;5084612;28;21510;-75
2023/05/13 10:15:46;;;;;;;7.93;5.00;;;14.60;74.20;;;;;;5072844;28;20426;-74
2023/05/13 10:18:13;;;;;;;7.03;5.20;;;14.80;73.30;;;;;;5090457;28;20426;-75
2023/05/13 10:20:41;;;;;;;8.87;5.40;;;14.40;73.20;;;;;;5086880;28;20513;-74
2023/05/13 10:23:07;;;;;;;8.10;4.77;;;14.20;73.90;;;;;;5087273;28;20442;-74
2023/05/13 10:25:32;;;;;;;6.23;4.80;;;14.10;74.20;;;;;;5087312;28;20476;-75
2023/05/13 10:28:01;;;;;;;7.20;4.97;;;14.30;73.90;;;;;;5088396;28;20435;-74
2023/05/13 10:30:30;;;;;;;5.73;3.70;;;14.00;73.30;;;;;;5086065;28;20173;-74
2023/05/13 10:32:56;;;;;;;4.47;3.83;;;13.90;74.50;;;;;;5084735;28;20522;-74
2023/05/13 10:35:25;;;;;;;5.67;4.20;;;13.90;74.90;;;;;;5065814;28;20415;-74
2023/05/13 10:38:08;;;;;;;6.60;4.70;;;13.80;74.60;;;;;;5082273;28;20180;-74
2023/05/13 10:40:59;;;;;;;7.10;4.83;;;13.60;75.80;;;;;;5088727;28;20415;-74
2023/05/13 10:43:32;;;;;;;7.00;3.90;;;13.80;75.50;;;;;;5079770;28;20472;-73
2023/05/13 10:46:04;;;;;;;7.00;5.00;;;14.10;74.80;;;;;;5065331;28;20418;-74
2023/05/13 10:48:48;;;;;;;11.90;5.70;;;14.00;74.90;;;;;;5083389;28;20466;-74
2023/05/13 10:51:14;;;;;;;12.33;6.30;;;14.10;75.20;;;;;;5048542;28;20459;-75
2023/05/13 10:53:46;;;;;;;8.10;5.60;;;14.10;75.10;;;;;;5068937;28;20421;-74
2023/05/13 10:56:12;;;;;;;10.67;6.30;;;13.90;76.20;;;;;;5067693;28;20847;-75
2023/05/13 10:58:38;;;;;;;9.17;6.60;;;13.80;76.40;;;;;;5071552;28;20457;-76
2023/05/13 11:01:18;;;;;;;11.80;6.80;;;13.70;77.00;;;;;;5069817;28;20477;-75
2023/05/13 11:03:55;;;;;;;11.53;6.27;;;13.50;77.30;;;;;;5071012;28;20478;-74
2023/05/13 11:06:41;;;;;;;8.70;5.90;;;13.70;77.60;;;;;;5068120;28;20417;-74
2023/05/13 11:09:27;;;;;;;11.47;5.70;;;13.70;76.70;;;;;;5048931;28;20823;-74
2023/05/13 11:11:55;;;;;;;11.47;7.17;;;13.90;76.80;;;;;;5062778;28;20469;-75
2023/05/13 11:14:23;;;;;;;9.47;6.67;;;13.90;76.10;;;;;;5071270;28;20418;-75
2023/05/13 11:17:01;;;;;;;9.17;6.10;;;13.80;77.00;;;;;;5073705;28;20515;-75
2023/05/13 11:19:46;;;;;;;8.57;6.03;;;14.20;76.50;;;;;;5074619;28;20426;-74
2023/05/13 11:22:20;;;;;;;8.67;5.77;;;14.30;75.50;;;;;;5066583;28;20450;-75
2023/05/13 11:25:01;;;;;;;9.70;6.80;;;14.00;75.10;;;;;;5081708;28;20446;-76
2023/05/13 11:27:27;;;;;;;10.37;6.43;;;14.20;75.20;;;;;;5078135;28;20479;-74
2023/05/13 11:29:55;;;;;;;8.03;5.87;;;13.80;76.50;;;;;;5078546;28;20987;-75
2023/05/13 11:32:51;;;;;;;9.63;6.03;;;13.90;77.10;;;;;;5068891;28;20692;-75
2023/05/13 11:35:20;;;;;;;8.37;6.10;;;14.20;75.90;;;;;;5044880;28;20455;-75
2023/05/13 11:37:47;;;;;;;9.00;6.53;;;14.20;75.20;;;;;;5069889;28;20793;-75
2023/05/13 11:40:21;;;;;;;8.87;6.00;;;14.10;76.10;;;;;;5061844;28;20442;-75
2023/05/13 11:42:47;;;;;;;10.77;6.30;;;14.20;75.20;;;;;;5065668;28;20557;-74
2023/05/13 11:45:14;;;;;;;7.83;5.60;;;13.90;75.50;;;;;;5043387;28;20795;-75
2023/05/13 11:47:40;;;;;;;8.57;6.23;;;13.60;76.40;;;;;;5070330;28;20515;-76
2023/05/13 11:50:29;;;;;;;8.90;5.83;;;13.70;76.70;;;;;;5048401;28;20555;-75
2023/05/13 11:52:56;;;;;;;9.53;5.90;;;13.70;76.80;;;;;;5065522;28;20207;-75
2023/05/13 11:55:30;;;;;;;9.87;6.97;;;13.80;77.00;;;;;;5069461;28;20453;-75
2023/05/13 11:57:56;;;;;;;7.80;5.30;;;13.90;76.80;;;;;;5055526;28;20838;-75
2023/05/13 12:00:27;;;;;;;9.50;6.40;;;13.90;77.30;;;;;;5054535;28;20861;-74
2023/05/13 12:02:53;;;;;;;10.60;6.40;;;14.00;76.50;;;;;;5053164;28;20889;-75
2023/05/13 12:05:19;;;;;;;7.23;5.00;;;14.10;76.20;;;;;;5072535;28;21234;-75
2023/05/13 12:07:45;;;;;;;7.47;5.27;;;14.30;75.70;;;;;;5072658;28;20467;-75
2023/05/13 12:10:11;;;;;;;8.50;5.33;;;14.20;75.20;;;;;;5073230;28;20602;-74
2023/05/13 12:12:38;;;;;;;9.30;5.97;;;14.30;74.90;;;;;;5062940;28;20483;-75
2023/05/13 12:15:09;;;;;;;7.17;5.60;;;14.10;75.20;;;;;;5068605;28;20416;-74
2023/05/13 12:17:35;;;;;;;9.73;5.30;;;14.20;75.10;;;;;;5070605;28;20416;-75
2023/05/13 12:20:15;;;;;;;7.03;4.77;;;14.40;74.50;;;;;;5073169;28;20429;-76
2023/05/13 12:22:44;;;;;;;9.27;6.10;;;14.30;74.30;;;;;;5060324;28;20472;-74
2023/05/13 12:25:40;;;;;;;5.33;4.57;;;14.50;73.90;;;;;;5068015;28;20832;-76
2023/05/13 12:28:24;;;;;;;6.10;4.40;;;14.70;73.50;;;;;;5062869;28;20422;-74
2023/05/13 12:30:54;;;;;;;7.53;5.00;;;14.40;73.30;;;;;;5063572;28;20460;-74
2023/05/13 12:33:31;;;;;;;6.23;4.40;;;14.50;73.20;;;;;;5063216;28;20450;-76
2023/05/13 12:36:35;;;;;;;7.57;5.53;;;14.70;72.90;;;;;;5066577;28;20419;-75
2023/05/13 12:39:05;;;;;;;5.87;4.87;;;14.70;72.70;;;;;;5066067;28;20925;-75
2023/05/13 12:41:49;;;;;;;7.93;5.70;;;14.70;73.50;;;;;;5061024;28;20887;-74
2023/05/13 12:44:15;;;;;;;8.30;5.37;;;14.60;72.60;;;;;;5053644;28;20470;-75
2023/05/13 12:46:54;;;;;;;9.77;5.73;;;14.50;73.60;;;;;;5072821;28;20450;-74
2023/05/13 12:49:21;;;;;;;7.77;5.10;;;14.90;73.30;;;;;;5072536;28;20520;-75